createdAt,value
2022-08-27T00:00:21.482Z,7.85
2022-08-27T00:02:49.002Z,7.90
2022-08-27T00:05:17.652Z,7.10
2022-08-27T00:07:45.179Z,8.00
2022-08-27T00:10:15.463Z,8.23
2022-08-27T00:12:42.483Z,8.73
2022-08-27T00:15:11.061Z,8.43
2022-08-27T00:17:38.667Z,7.50
2022-08-27T00:20:06.878Z,8.63
2022-08-27T00:22:33.888Z,6.93
2022-08-27T00:25:01.229Z,7.88
2022-08-27T00:27:27.910Z,8.23
2022-08-27T00:29:54.590Z,7.57
2022-08-27T00:32:21.272Z,6.45
2022-08-27T00:34:47.897Z,7.63
2022-08-27T00:37:14.683Z,7.32
2022-08-27T00:39:41.448Z,6.57
2022-08-27T00:42:08.484Z,6.65
2022-08-27T00:44:36.313Z,6.43
2022-08-27T00:47:07.512Z,5.85
2022-08-27T00:49:52.856Z,6.28
2022-08-27T00:52:28.406Z,5.93
2022-08-27T00:55:20.004Z,5.68
2022-08-27T00:57:53.636Z,5.75
2022-08-27T01:00:20.686Z,5.40
2022-08-27T01:02:48.347Z,5.53
2022-08-27T01:05:21.838Z,5.57
2022-08-27T01:07:51.513Z,6.40
2022-08-27T01:10:21.494Z,5.55
2022-08-27T01:12:53.529Z,6.05
2022-08-27T01:15:22.624Z,6.18
2022-08-27T01:17:50.415Z,5.72
2022-08-27T01:20:27.247Z,5.32
2022-08-27T01:22:59.787Z,6.55
2022-08-27T01:25:27.443Z,6.32
2022-08-27T01:27:58.574Z,6.35
2022-08-27T01:30:25.573Z,5.60
2022-08-27T01:32:53.099Z,5.65
2022-08-27T01:35:21.185Z,6.38
2022-08-27T01:37:52.417Z,5.45
2022-08-27T01:40:20.340Z,6.72
2022-08-27T01:42:50.811Z,5.78
2022-08-27T01:45:30.134Z,5.70
2022-08-27T01:47:58.634Z,5.65
2022-08-27T01:50:31.925Z,6.50
2022-08-27T01:53:06.592Z,5.45
2022-08-27T01:55:33.375Z,6.75
2022-08-27T01:58:00.184Z,6.55
2022-08-27T02:00:34.711Z,7.22
2022-08-27T02:03:01.971Z,5.88
2022-08-27T02:05:29.594Z,6.18
2022-08-27T02:07:57.137Z,6.28
2022-08-27T02:10:27.895Z,6.25
2022-08-27T02:12:54.630Z,6.68
2022-08-27T02:15:22.331Z,6.43
2022-08-27T02:17:49.566Z,6.68
2022-08-27T02:20:17.536Z,6.50
2022-08-27T02:22:44.847Z,9.52
2022-08-27T02:25:13.635Z,7.20
2022-08-27T02:27:41.855Z,7.10
2022-08-27T02:30:10.823Z,7.57
2022-08-27T02:32:37.516Z,8.35
2022-08-27T02:35:05.603Z,8.75
2022-08-27T02:37:32.686Z,7.60
2022-08-27T02:39:59.450Z,8.65
2022-08-27T02:42:26.159Z,8.52
2022-08-27T02:44:54.923Z,7.85
2022-08-27T02:47:21.791Z,8.50
2022-08-27T02:49:49.307Z,7.03
2022-08-27T02:52:16.835Z,8.07
2022-08-27T02:54:51.906Z,8.07
2022-08-27T02:57:18.640Z,7.55
2022-08-27T02:59:45.262Z,7.05
2022-08-27T03:02:12.045Z,7.18
2022-08-27T03:04:38.891Z,7.72
2022-08-27T03:07:05.548Z,8.23
2022-08-27T03:09:32.512Z,8.52
2022-08-27T03:11:59.215Z,8.57
2022-08-27T03:14:26.151Z,8.32
2022-08-27T03:16:52.797Z,8.77
2022-08-27T03:19:23.665Z,8.05
2022-08-27T03:21:52.122Z,7.93
2022-08-27T03:24:21.654Z,7.95
2022-08-27T03:26:52.657Z,7.90
2022-08-27T03:29:20.826Z,7.22
2022-08-27T03:31:47.613Z,8.13
2022-08-27T03:34:14.376Z,7.63
2022-08-27T03:36:48.714Z,8.82
2022-08-27T03:39:15.383Z,7.20
2022-08-27T03:41:54.552Z,8.15
2022-08-27T03:44:24.075Z,7.47
2022-08-27T03:46:51.883Z,8.45
2022-08-27T03:49:20.743Z,7.82
2022-08-27T03:51:49.914Z,7.35
2022-08-27T03:54:16.680Z,8.18
2022-08-27T03:56:43.405Z,8.55
2022-08-27T03:59:10.182Z,7.53
2022-08-27T04:01:36.942Z,8.15
2022-08-27T04:04:04.330Z,8.65
2022-08-27T04:06:30.982Z,9.00
2022-08-27T04:08:57.746Z,8.25
2022-08-27T04:11:24.491Z,7.53
2022-08-27T04:13:51.420Z,8.93
2022-08-27T04:16:18.197Z,7.95
2022-08-27T04:18:44.975Z,8.35
2022-08-27T04:21:14.159Z,9.23
2022-08-27T04:23:42.108Z,8.98
2022-08-27T04:26:10.999Z,9.65
2022-08-27T04:28:38.843Z,10.50
2022-08-27T04:31:06.741Z,8.82
2022-08-27T04:33:38.645Z,9.65
2022-08-27T04:36:08.251Z,8.85
2022-08-27T04:38:35.047Z,9.57
2022-08-27T04:41:27.440Z,9.90
2022-08-27T04:43:59.083Z,9.38
2022-08-27T04:46:29.035Z,9.95
2022-08-27T04:48:57.718Z,9.43
2022-08-27T04:51:25.011Z,9.32
2022-08-27T04:53:52.663Z,8.90
2022-08-27T04:56:22.271Z,8.60
2022-08-27T04:58:50.584Z,8.88
2022-08-27T05:01:25.278Z,9.48
2022-08-27T05:03:52.160Z,9.35
2022-08-27T05:06:19.345Z,9.20
2022-08-27T05:08:47.500Z,8.32
2022-08-27T05:11:15.868Z,9.25
2022-08-27T05:13:44.128Z,9.40
2022-08-27T05:16:19.581Z,9.73
2022-08-27T05:18:48.829Z,9.65
2022-08-27T05:21:19.999Z,10.13
2022-08-27T05:23:47.573Z,9.50
2022-08-27T05:26:14.936Z,10.07
2022-08-27T05:28:42.097Z,10.35
2022-08-27T05:31:11.243Z,9.43
2022-08-27T05:33:39.148Z,10.00
2022-08-27T05:36:07.247Z,9.10
2022-08-27T05:38:34.403Z,9.48
2022-08-27T05:41:15.138Z,9.85
2022-08-27T05:43:47.751Z,10.15
2022-08-27T05:46:18.903Z,9.10
2022-08-27T05:48:45.683Z,9.73
2022-08-27T05:51:36.327Z,9.80
2022-08-27T05:54:19.044Z,8.93
2022-08-27T05:56:46.064Z,10.50
2022-08-27T05:59:31.232Z,10.20
2022-08-27T06:02:02.035Z,9.45
2022-08-27T06:04:28.992Z,9.45
2022-08-27T06:06:55.664Z,9.73
2022-08-27T06:09:25.652Z,9.35
2022-08-27T06:11:56.875Z,9.07
2022-08-27T06:14:24.103Z,9.07
2022-08-27T06:16:50.834Z,8.93
2022-08-27T06:19:18.008Z,8.15
2022-08-27T06:21:45.029Z,9.40
2022-08-27T06:24:12.998Z,8.32
2022-08-27T06:26:42.233Z,8.43
2022-08-27T06:29:09.796Z,7.57
2022-08-27T06:31:37.349Z,7.18
2022-08-27T06:34:09.502Z,8.65
2022-08-27T06:36:39.392Z,8.25
2022-08-27T06:39:07.183Z,7.97
2022-08-27T06:41:34.955Z,11.30
2022-08-27T06:44:01.700Z,10.15
2022-08-27T06:46:29.489Z,10.15
2022-08-27T06:48:58.894Z,10.13
2022-08-27T06:51:28.693Z,10.27
2022-08-27T06:53:57.685Z,9.82
2022-08-27T06:56:24.588Z,8.73
2022-08-27T06:59:00.883Z,9.07
2022-08-27T07:01:36.886Z,9.65
2022-08-27T07:04:10.302Z,7.32
2022-08-27T07:06:38.515Z,8.25
2022-08-27T07:09:06.723Z,7.70
2022-08-27T07:11:33.511Z,7.93
2022-08-27T07:14:01.342Z,7.65
2022-08-27T07:16:29.482Z,9.65
2022-08-27T07:19:03.909Z,9.32
2022-08-27T07:21:32.807Z,7.93
2022-08-27T07:24:04.475Z,8.30
2022-08-27T07:26:33.574Z,7.80
2022-08-27T07:29:00.844Z,8.77
2022-08-27T07:31:28.031Z,8.20
2022-08-27T07:33:54.862Z,8.80
2022-08-27T07:36:22.978Z,6.97
2022-08-27T07:38:59.296Z,7.60
2022-08-27T07:41:30.582Z,6.45
2022-08-27T07:44:19.683Z,7.10
2022-08-27T07:46:48.664Z,6.90
2022-08-27T07:49:19.526Z,7.03
2022-08-27T07:51:46.638Z,7.97
2022-08-27T07:54:14.289Z,6.65
2022-08-27T07:56:41.091Z,6.50
2022-08-27T07:59:08.165Z,6.80
2022-08-27T08:01:34.995Z,7.05
2022-08-27T08:04:02.187Z,6.88
2022-08-27T08:06:28.975Z,6.45
2022-08-27T08:08:55.816Z,6.35
2022-08-27T08:11:22.480Z,6.10
2022-08-27T08:13:49.205Z,6.97
2022-08-27T08:16:16.183Z,5.78
2022-08-27T08:18:42.983Z,5.63
2022-08-27T08:21:12.652Z,6.00
2022-08-27T08:23:40.732Z,6.07
2022-08-27T08:26:09.018Z,6.22
2022-08-27T08:28:37.277Z,5.80
2022-08-27T08:31:06.196Z,5.65
2022-08-27T08:33:33.511Z,6.30
2022-08-27T08:36:30.598Z,5.68
2022-08-27T08:38:57.274Z,5.72
2022-08-27T08:41:50.412Z,5.60
2022-08-27T08:44:23.649Z,5.88
2022-08-27T08:46:58.494Z,4.88
2022-08-27T08:49:49.417Z,5.93
2022-08-27T08:55:20.817Z,5.45
2022-08-27T08:58:25.341Z,6.20
2022-08-27T09:00:57.431Z,6.25
2022-08-27T09:03:24.332Z,6.07
2022-08-27T09:06:16.914Z,5.70
2022-08-27T09:08:45.036Z,6.78
2022-08-27T09:11:27.274Z,5.90
2022-08-27T09:14:07.533Z,6.78
2022-08-27T09:16:38.610Z,6.55
2022-08-27T09:19:06.877Z,6.13
2022-08-27T09:22:01.732Z,6.50
2022-08-27T09:24:52.591Z,5.93
2022-08-27T09:29:54.528Z,6.22
2022-08-27T09:32:26.727Z,5.80
2022-08-27T09:34:58.554Z,7.43
2022-08-27T09:37:33.922Z,6.78
2022-08-27T09:40:13.683Z,6.93
2022-08-27T09:42:53.350Z,5.95
2022-08-27T09:45:27.229Z,6.70
2022-08-27T09:48:10.170Z,6.00
2022-08-27T09:50:55.880Z,6.88
2022-08-27T09:53:27.868Z,6.10
2022-08-27T09:58:45.084Z,6.55
2022-08-27T10:01:19.689Z,6.00
2022-08-27T10:03:47.621Z,6.47
2022-08-27T10:06:14.351Z,6.00
2022-08-27T10:08:48.968Z,5.47
2022-08-27T10:11:18.708Z,6.30
2022-08-27T10:13:48.068Z,5.70
2022-08-27T10:16:42.663Z,4.63
2022-08-27T10:19:46.611Z,6.20
2022-08-27T10:22:19.502Z,5.40
2022-08-27T10:25:15.995Z,5.65
2022-08-27T10:27:49.510Z,5.90
2022-08-27T10:30:40.298Z,7.10
2022-08-27T10:38:37.540Z,5.05
2022-08-27T10:41:15.687Z,4.65
2022-08-27T10:44:01.034Z,4.70
2022-08-27T10:47:04.976Z,4.90
2022-08-27T10:49:58.296Z,4.38
2022-08-27T10:52:46.271Z,4.60
2022-08-27T10:55:23.890Z,4.80
2022-08-27T10:58:28.256Z,4.00
2022-08-27T11:01:13.711Z,3.83
2022-08-27T11:03:50.323Z,3.90
2022-08-27T11:06:41.107Z,4.25
2022-08-27T11:12:13.708Z,3.88
2022-08-27T11:14:49.427Z,3.75
2022-08-27T11:17:21.958Z,3.50
2022-08-27T11:20:20.458Z,3.90
2022-08-27T11:23:02.627Z,3.97
2022-08-27T11:25:59.084Z,3.80
2022-08-27T11:28:40.593Z,3.67
2022-08-27T11:31:30.374Z,4.05
2022-08-27T11:34:21.736Z,3.95
2022-08-27T11:37:21.674Z,3.50
2022-08-27T11:40:18.143Z,3.60
2022-08-27T11:42:50.014Z,3.65
2022-08-27T11:45:29.739Z,3.55
2022-08-27T11:48:24.020Z,3.00
2022-08-27T11:51:06.969Z,3.38
2022-08-27T11:53:49.019Z,3.25
2022-08-27T11:56:41.487Z,3.45
2022-08-27T11:59:33.335Z,2.80
2022-08-27T12:02:35.646Z,3.20
2022-08-27T12:05:26.594Z,3.28
2022-08-27T12:07:53.627Z,3.40
2022-08-27T12:10:37.923Z,3.10
2022-08-27T12:13:17.419Z,3.15
2022-08-27T12:15:58.680Z,2.85
2022-08-27T12:18:37.035Z,2.88
2022-08-27T12:21:13.600Z,3.15
2022-08-27T12:24:03.106Z,2.83
2022-08-27T12:26:41.522Z,3.05
2022-08-27T12:29:43.896Z,2.33
2022-08-27T12:32:22.429Z,2.67
2022-08-27T12:35:12.099Z,2.33
2022-08-27T12:37:51.818Z,3.05
2022-08-27T12:40:27.294Z,2.47
2022-08-27T12:43:13.737Z,2.75
2022-08-27T12:45:51.108Z,2.70
2022-08-27T12:48:48.361Z,2.70
2022-08-27T12:51:26.995Z,2.85
2022-08-27T12:53:53.584Z,2.35
2022-08-27T12:56:35.303Z,2.58
2022-08-27T12:59:10.922Z,2.60
2022-08-27T13:01:43.369Z,2.30
2022-08-27T13:04:22.884Z,2.70
2022-08-27T13:06:49.925Z,2.15
2022-08-27T13:09:16.907Z,2.22
2022-08-27T13:11:48.205Z,2.35
2022-08-27T13:14:20.712Z,2.35
2022-08-27T13:16:52.620Z,1.90
2022-08-27T13:24:36.323Z,1.75
2022-08-27T13:27:05.786Z,2.45
2022-08-27T13:29:32.930Z,2.30
2022-08-27T13:32:00.346Z,1.80
2022-08-27T13:34:31.920Z,2.17
2022-08-27T13:37:04.063Z,2.10
2022-08-27T13:39:32.769Z,1.80
2022-08-27T13:42:00.779Z,2.10
2022-08-27T13:44:33.249Z,2.05
2022-08-27T13:47:04.974Z,2.40
2022-08-27T13:49:39.795Z,2.90
2022-08-27T13:52:22.016Z,3.08
2022-08-27T13:54:58.975Z,2.50
2022-08-27T13:57:39.460Z,3.28
2022-08-27T14:00:15.970Z,2.40
2022-08-27T14:02:56.364Z,2.88
2022-08-27T14:05:23.214Z,2.53
2022-08-27T14:07:53.786Z,3.60
2022-08-27T14:10:38.547Z,3.72
2022-08-27T14:13:09.775Z,2.50
2022-08-27T14:15:42.638Z,2.15
2022-08-27T14:18:36.847Z,2.88
2022-08-27T14:21:09.320Z,2.58
2022-08-27T14:23:36.012Z,2.50
2022-08-27T14:26:02.931Z,3.00
2022-08-27T14:28:31.519Z,2.40
2022-08-27T14:30:58.451Z,2.28
2022-08-27T14:33:25.288Z,2.78
2022-08-27T14:35:52.143Z,2.40
2022-08-27T14:38:23.250Z,2.58
2022-08-27T14:40:53.675Z,2.75
2022-08-27T14:43:22.938Z,2.40
2022-08-27T14:45:50.851Z,2.67
2022-08-27T14:48:21.846Z,2.17
2022-08-27T14:50:55.485Z,2.60
2022-08-27T14:53:22.275Z,2.28
2022-08-27T14:55:52.108Z,2.20
2022-08-27T14:58:19.389Z,2.33
2022-08-27T15:00:46.447Z,2.40
2022-08-27T15:03:13.356Z,2.60
2022-08-27T15:05:40.067Z,2.33
2022-08-27T15:08:07.522Z,2.40
2022-08-27T15:10:39.734Z,2.17
2022-08-27T15:13:06.468Z,2.08
2022-08-27T15:15:33.141Z,2.55
2022-08-27T15:17:59.776Z,2.38
2022-08-27T15:20:26.478Z,1.88
2022-08-27T15:22:53.275Z,1.92
2022-08-27T15:25:20.757Z,2.03
2022-08-27T15:27:47.614Z,2.05
2022-08-27T15:30:15.869Z,2.15
2022-08-27T15:32:45.743Z,2.42
2022-08-27T15:35:17.641Z,2.42
2022-08-27T15:40:14.703Z,2.50
2022-08-27T15:42:41.884Z,2.22
2022-08-27T15:45:09.730Z,2.65
2022-08-27T15:47:36.396Z,2.42
2022-08-27T15:50:04.955Z,1.92
2022-08-27T15:52:36.412Z,2.85
2022-08-27T15:55:18.535Z,2.20
2022-08-27T15:57:45.265Z,2.15
2022-08-27T16:00:12.991Z,2.10
2022-08-27T16:02:41.492Z,2.22
2022-08-27T16:05:10.242Z,2.20
2022-08-27T16:07:37.131Z,2.17
2022-08-27T16:10:05.107Z,1.83
2022-08-27T16:12:31.775Z,2.20
2022-08-27T16:14:58.715Z,3.90
2022-08-27T16:17:26.448Z,2.35
2022-08-27T16:19:53.448Z,2.30
2022-08-27T16:22:20.159Z,1.98
2022-08-27T16:24:46.830Z,2.22
2022-08-27T16:27:13.543Z,2.50
2022-08-27T16:29:40.240Z,2.30
2022-08-27T16:32:11.256Z,2.33
2022-08-27T16:37:05.939Z,2.30
2022-08-27T16:39:34.644Z,2.30
2022-08-27T16:42:04.691Z,2.50
2022-08-27T16:44:32.040Z,2.03
2022-08-27T16:46:58.724Z,1.83
2022-08-27T16:49:44.208Z,2.25
2022-08-27T16:52:11.281Z,1.77
2022-08-27T16:54:38.618Z,2.13
2022-08-27T16:57:05.540Z,1.80
2022-08-27T16:59:32.254Z,2.25
2022-08-27T17:01:59.023Z,1.70
2022-08-27T17:04:31.273Z,1.92
2022-08-27T17:07:01.243Z,2.00
2022-08-27T17:09:28.304Z,1.90
2022-08-27T17:11:58.638Z,2.33
2022-08-27T17:14:26.726Z,2.00
2022-08-27T17:16:53.855Z,2.50
2022-08-27T17:19:25.987Z,1.98
2022-08-27T17:21:54.795Z,2.30
2022-08-27T17:24:22.061Z,2.75
2022-08-27T17:26:48.842Z,1.77
2022-08-27T17:29:15.581Z,1.88
2022-08-27T17:31:43.709Z,1.95
2022-08-27T17:34:17.835Z,2.00
2022-08-27T17:36:45.326Z,2.38
2022-08-27T17:39:13.691Z,2.00
2022-08-27T17:41:46.314Z,2.00
2022-08-27T17:44:27.603Z,1.90
2022-08-27T17:46:58.471Z,2.17
2022-08-27T17:49:25.566Z,2.22
2022-08-27T17:51:56.896Z,2.00
2022-08-27T17:54:50.879Z,2.25
2022-08-27T17:57:25.511Z,2.00
2022-08-27T17:59:53.614Z,1.90
2022-08-27T18:02:34.347Z,2.00
2022-08-27T18:05:01.496Z,1.77
2022-08-27T18:07:28.475Z,2.03
2022-08-27T18:09:55.458Z,1.98
2022-08-27T18:12:24.595Z,2.70
2022-08-27T18:14:58.365Z,2.53
2022-08-27T18:17:25.016Z,3.05
2022-08-27T18:19:51.687Z,2.10
2022-08-27T18:22:18.540Z,1.70
2022-08-27T18:24:45.166Z,2.00
2022-08-27T18:27:11.927Z,2.00
2022-08-27T18:29:38.699Z,2.15
2022-08-27T18:32:05.723Z,2.00
2022-08-27T18:34:32.573Z,1.75
2022-08-27T18:36:59.348Z,1.90
2022-08-27T18:39:26.170Z,2.30
2022-08-27T18:41:53.330Z,2.00
2022-08-27T18:44:20.143Z,1.95
2022-08-27T18:46:47.931Z,2.20
2022-08-27T18:49:14.702Z,1.92
2022-08-27T18:51:43.742Z,1.88
2022-08-27T18:54:10.788Z,1.95
2022-08-27T18:56:37.468Z,2.30
2022-08-27T18:59:06.733Z,2.03
2022-08-27T19:01:33.796Z,2.08
2022-08-27T19:04:00.767Z,2.13
2022-08-27T19:06:27.466Z,2.50
2022-08-27T19:08:54.131Z,2.20
2022-08-27T19:11:20.853Z,2.13
2022-08-27T19:13:50.557Z,1.92
2022-08-27T19:16:21.909Z,2.30
2022-08-27T19:18:48.861Z,1.90
2022-08-27T19:21:16.102Z,2.67
2022-08-27T19:23:43.183Z,1.95
2022-08-27T19:26:22.132Z,3.30
2022-08-27T19:28:48.922Z,2.03
2022-08-27T19:31:16.244Z,1.90
2022-08-27T19:33:44.402Z,2.20
2022-08-27T19:36:15.755Z,1.80
2022-08-27T19:38:43.619Z,3.00
2022-08-27T19:41:10.693Z,2.10
2022-08-27T19:43:37.344Z,1.80
2022-08-27T19:46:04.938Z,2.00
2022-08-27T19:48:34.173Z,1.92
2022-08-27T19:51:01.404Z,2.53
2022-08-27T19:53:28.135Z,2.05
2022-08-27T19:55:54.870Z,2.20
2022-08-27T19:58:22.072Z,2.25
2022-08-27T20:00:48.834Z,1.98
2022-08-27T20:03:15.810Z,2.28
2022-08-27T20:05:43.520Z,2.42
2022-08-27T20:08:10.398Z,2.75
2022-08-27T20:10:39.902Z,2.10
2022-08-27T20:13:07.474Z,2.78
2022-08-27T20:15:35.263Z,2.03
2022-08-27T20:18:02.677Z,2.10
2022-08-27T20:20:31.417Z,2.70
2022-08-27T20:22:59.682Z,2.53
2022-08-27T20:25:26.586Z,1.85
2022-08-27T20:27:53.300Z,2.15
2022-08-27T20:30:22.901Z,1.98
2022-08-27T20:32:50.225Z,2.38
2022-08-27T20:35:17.943Z,2.30
2022-08-27T20:37:46.075Z,2.05
2022-08-27T20:40:17.892Z,2.40
2022-08-27T20:42:44.643Z,2.13
2022-08-27T20:45:12.669Z,3.38
2022-08-27T20:47:40.835Z,2.42
2022-08-27T20:50:08.212Z,2.08
2022-08-27T20:52:35.859Z,2.20
2022-08-27T20:55:03.771Z,2.72
2022-08-27T20:57:30.506Z,2.33
2022-08-27T21:00:15.980Z,2.20
2022-08-27T21:02:42.795Z,1.92
2022-08-27T21:05:15.130Z,2.20
2022-08-27T21:07:42.507Z,2.20
2022-08-27T21:10:09.441Z,2.15
2022-08-27T21:12:36.427Z,2.20
2022-08-27T21:15:05.830Z,2.05
2022-08-27T21:17:32.503Z,2.10
2022-08-27T21:19:59.436Z,2.03
2022-08-27T21:22:26.731Z,2.40
2022-08-27T21:24:53.614Z,2.25
2022-08-27T21:27:21.641Z,2.00
2022-08-27T21:29:49.102Z,2.20
2022-08-27T21:32:16.772Z,2.30
2022-08-27T21:34:43.737Z,2.28
2022-08-27T21:37:11.932Z,2.60
2022-08-27T21:39:39.683Z,2.30
2022-08-27T21:42:06.864Z,2.13
2022-08-27T21:44:34.260Z,2.47
2022-08-27T21:47:01.759Z,2.20
2022-08-27T21:49:28.808Z,2.20
2022-08-27T21:51:55.538Z,2.50
2022-08-27T21:54:23.518Z,2.00
2022-08-27T21:56:52.893Z,2.25
2022-08-27T21:59:19.960Z,2.88
2022-08-27T22:01:46.637Z,1.77
2022-08-27T22:04:13.407Z,2.03
2022-08-27T22:06:40.071Z,1.88
2022-08-27T22:09:07.082Z,2.33
2022-08-27T22:11:33.754Z,2.20
2022-08-27T22:14:00.642Z,1.75
2022-08-27T22:16:28.999Z,1.77
2022-08-27T22:18:57.036Z,1.88
2022-08-27T22:21:24.391Z,2.00
2022-08-27T22:23:52.286Z,1.85
2022-08-27T22:26:19.976Z,1.67
2022-08-27T22:28:47.100Z,1.75
2022-08-27T22:31:14.344Z,2.63
2022-08-27T22:33:41.078Z,2.03
2022-08-27T22:36:07.951Z,1.48
2022-08-27T22:38:34.687Z,2.03
2022-08-27T22:41:01.523Z,1.77
2022-08-27T22:43:28.278Z,2.05
2022-08-27T22:45:54.974Z,1.95
2022-08-27T22:48:21.630Z,1.70
2022-08-27T22:50:48.334Z,2.08
2022-08-27T22:53:15.005Z,1.90
2022-08-27T22:55:41.642Z,1.48
2022-08-27T22:58:08.440Z,1.70
2022-08-27T23:00:37.187Z,2.03
2022-08-27T23:03:06.196Z,1.95
2022-08-27T23:05:40.370Z,1.80
2022-08-27T23:08:09.471Z,1.60
2022-08-27T23:10:37.884Z,1.63
2022-08-27T23:13:06.797Z,2.33
2022-08-27T23:15:34.441Z,2.33
2022-08-27T23:18:01.576Z,1.63
2022-08-27T23:20:28.921Z,1.33
2022-08-27T23:22:56.223Z,1.65
2022-08-27T23:25:43.429Z,1.42
2022-08-27T23:28:14.821Z,1.50
2022-08-27T23:30:43.308Z,1.80
2022-08-27T23:33:09.958Z,1.55
2022-08-27T23:35:37.209Z,1.55
2022-08-27T23:38:04.679Z,1.42
2022-08-27T23:40:31.530Z,1.50
2022-08-27T23:42:58.288Z,1.38
2022-08-27T23:45:26.115Z,1.30
2022-08-27T23:47:53.364Z,1.75
2022-08-27T23:50:24.739Z,1.98
2022-08-27T23:53:02.081Z,1.48
2022-08-27T23:55:29.379Z,1.40
2022-08-27T23:57:57.634Z,1.50
